createdAt,value
2022-09-20T00:00:48.075Z,101867.28
2022-09-20T00:03:15.922Z,101879.63
2022-09-20T00:05:44.977Z,101852.91
2022-09-20T00:08:16.627Z,101845.69
2022-09-20T00:10:43.602Z,101817.81
2022-09-20T00:13:12.771Z,101876.97
2022-09-20T00:15:44.642Z,101863.53
2022-09-20T00:18:11.672Z,101875.34
2022-09-20T00:20:48.984Z,101844.63
2022-09-20T00:23:16.307Z,101879.78
2022-09-20T00:25:43.621Z,101877.31
2022-09-20T00:28:11.260Z,101856.63
2022-09-20T00:30:38.963Z,101865.75
2022-09-20T00:33:05.698Z,101818.56
2022-09-20T00:35:32.484Z,101823.84
2022-09-20T00:37:59.186Z,101803.19
2022-09-20T00:40:29.097Z,101848.66
2022-09-20T00:42:55.864Z,101850.25
2022-09-20T00:45:28.555Z,101875.09
2022-09-20T00:48:30.390Z,101855.16
2022-09-20T00:51:06.980Z,101865.03
2022-09-20T00:53:38.460Z,101877.16
2022-09-20T00:56:09.187Z,101846.78
2022-09-20T00:58:40.882Z,101864.75
2022-09-20T01:01:07.913Z,101814.94
2022-09-20T01:03:38.460Z,101812.22
2022-09-20T01:06:11.873Z,101863.38
2022-09-20T01:08:41.423Z,101843.88
2022-09-20T01:11:08.462Z,101829.72
2022-09-20T01:13:35.086Z,101800.38
2022-09-20T01:16:04.725Z,101868.13
2022-09-20T01:18:33.651Z,101866.06
2022-09-20T01:21:01.504Z,101855.13
2022-09-20T01:23:55.652Z,101867.34
2022-09-20T01:26:45.451Z,101870.50
2022-09-20T01:29:18.055Z,101868.00
2022-09-20T01:31:54.733Z,101844.28
2022-09-20T01:34:45.015Z,101849.81
2022-09-20T01:37:24.035Z,101794.66
2022-09-20T01:40:10.844Z,101884.06
2022-09-20T01:42:40.986Z,101814.88
2022-09-20T01:45:28.484Z,101838.63
2022-09-20T01:48:04.109Z,101878.06
2022-09-20T01:50:52.434Z,101879.97
2022-09-20T01:53:41.044Z,101877.00
2022-09-20T01:56:10.787Z,101872.78
2022-09-20T01:59:22.786Z,101876.19
2022-09-20T02:01:52.002Z,101872.56
2022-09-20T02:04:43.536Z,101871.81
2022-09-20T02:07:28.686Z,101863.69
2022-09-20T02:10:34.153Z,101852.19
2022-09-20T02:13:08.862Z,101843.47
2022-09-20T02:15:59.542Z,101859.94
2022-09-20T02:18:26.246Z,101858.16
2022-09-20T02:21:17.781Z,101867.59
2022-09-20T02:24:04.707Z,101876.53
2022-09-20T02:26:31.338Z,101846.66
2022-09-20T02:29:35.651Z,101877.25
2022-09-20T02:32:40.870Z,101878.25
2022-09-20T02:35:16.624Z,101807.50
2022-09-20T02:38:08.816Z,101865.91
2022-09-20T02:40:57.204Z,101858.97
2022-09-20T02:43:48.790Z,101818.06
2022-09-20T02:46:22.683Z,101870.81
2022-09-20T02:49:08.426Z,101856.69
2022-09-20T02:51:43.834Z,101867.94
2022-09-20T02:54:32.007Z,101872.38
2022-09-20T02:57:20.371Z,101869.13
2022-09-20T02:59:54.116Z,101839.44
2022-09-20T03:02:30.926Z,101846.09
2022-09-20T03:05:25.984Z,101857.94
2022-09-20T03:08:08.195Z,101839.44
2022-09-20T03:10:54.236Z,101839.06
2022-09-20T03:13:49.550Z,101842.31
2022-09-20T03:16:22.705Z,101841.47
2022-09-20T03:18:56.976Z,101842.84
2022-09-20T03:21:38.901Z,101838.16
2022-09-20T03:24:20.720Z,101841.88
2022-09-20T03:26:50.346Z,101837.03
2022-09-20T03:29:37.750Z,101844.91
2022-09-20T03:32:32.068Z,101840.44
2022-09-20T03:34:58.665Z,101837.75
2022-09-20T03:37:44.054Z,101835.13
2022-09-20T03:40:41.681Z,101828.22
2022-09-20T03:43:24.623Z,101820.69
2022-09-20T03:45:54.667Z,101822.38
2022-09-20T03:48:52.243Z,101815.59
2022-09-20T03:51:23.718Z,101827.16
2022-09-20T03:53:59.896Z,101815.59
2022-09-20T03:57:03.504Z,101810.63
2022-09-20T03:59:45.299Z,101819.19
2022-09-20T04:02:34.863Z,101782.53
2022-09-20T04:05:18.435Z,101779.75
2022-09-20T04:08:04.168Z,101815.41
2022-09-20T04:10:41.715Z,101812.31
2022-09-20T04:13:37.695Z,101821.09
2022-09-20T04:16:15.884Z,101819.50
2022-09-20T04:18:45.485Z,101812.34
2022-09-20T04:21:42.959Z,101814.13
2022-09-20T04:24:22.805Z,101809.75
2022-09-20T04:27:00.326Z,101806.44
2022-09-20T04:29:32.612Z,101816.09
2022-09-20T04:32:36.922Z,101814.63
2022-09-20T04:35:51.648Z,101818.13
2022-09-20T04:38:21.054Z,101783.78
2022-09-20T04:41:13.041Z,101811.53
2022-09-20T04:44:06.530Z,101809.94
2022-09-20T04:46:45.255Z,101816.44
2022-09-20T04:50:11.111Z,101811.50
2022-09-20T04:53:02.552Z,101823.69
2022-09-20T04:55:44.910Z,101810.69
2022-09-20T04:58:18.663Z,101815.78
2022-09-20T05:01:17.335Z,101771.69
2022-09-20T05:04:08.950Z,101815.53
2022-09-20T05:06:39.009Z,101812.91
2022-09-20T05:09:33.514Z,101814.47
2022-09-20T05:12:37.587Z,101816.34
2022-09-20T05:15:23.374Z,101817.81
2022-09-20T05:18:26.662Z,101804.19
2022-09-20T05:21:39.553Z,101787.97
2022-09-20T05:24:24.843Z,101813.66
2022-09-20T05:26:54.403Z,101813.00
2022-09-20T05:29:25.859Z,101806.09
2022-09-20T05:32:30.455Z,101818.22
2022-09-20T05:35:04.884Z,101815.38
2022-09-20T05:37:46.583Z,101817.88
2022-09-20T05:40:21.896Z,101818.63
2022-09-20T05:43:11.459Z,101816.75
2022-09-20T05:46:10.818Z,101742.84
2022-09-20T05:48:46.874Z,101817.69
2022-09-20T05:52:02.032Z,101820.88
2022-09-20T05:54:47.163Z,101816.56
2022-09-20T05:57:56.609Z,101812.31
2022-09-20T06:00:29.193Z,101813.31
2022-09-20T06:03:05.551Z,101782.28
2022-09-20T06:06:14.752Z,101820.53
2022-09-20T06:08:50.523Z,101807.94
2022-09-20T06:11:49.034Z,101801.91
2022-09-20T06:14:51.186Z,101820.06
2022-09-20T06:17:53.311Z,101810.81
2022-09-20T06:20:29.970Z,101810.97
2022-09-20T06:23:02.037Z,101815.38
2022-09-20T06:25:38.110Z,101810.75
2022-09-20T06:28:14.521Z,101809.09
2022-09-20T06:30:47.889Z,101796.28
2022-09-20T06:33:17.235Z,101802.31
2022-09-20T06:35:46.583Z,101810.81
2022-09-20T06:38:56.648Z,101816.13
2022-09-20T06:41:31.071Z,101776.25
2022-09-20T06:43:59.594Z,101820.41
2022-09-20T06:46:31.906Z,101806.31
2022-09-20T06:48:59.034Z,101765.66
2022-09-20T06:51:29.012Z,101781.31
2022-09-20T06:53:57.489Z,101819.63
2022-09-20T06:56:28.218Z,101785.88
2022-09-20T06:58:54.953Z,101805.78
2022-09-20T07:01:29.733Z,101770.44
2022-09-20T07:03:57.572Z,101788.41
2022-09-20T07:06:24.318Z,101797.72
2022-09-20T07:08:51.127Z,101811.50
2022-09-20T07:11:18.119Z,101831.13
2022-09-20T07:13:46.243Z,101815.78
2022-09-20T07:16:17.130Z,101786.31
2022-09-20T07:18:44.360Z,101814.84
2022-09-20T07:21:16.534Z,101805.94
2022-09-20T07:23:45.952Z,101827.84
2022-09-20T07:26:25.928Z,101791.84
2022-09-20T07:28:53.277Z,101838.63
2022-09-20T07:31:23.057Z,101835.78
2022-09-20T07:33:49.920Z,101789.94
2022-09-20T07:36:16.938Z,101813.00
2022-09-20T07:38:51.192Z,101834.50
2022-09-20T07:41:23.068Z,101821.16
2022-09-20T07:43:51.208Z,101767.59
2022-09-20T07:46:18.357Z,101782.31
2022-09-20T07:48:45.216Z,101826.91
2022-09-20T07:51:13.749Z,101839.09
2022-09-20T07:53:41.224Z,101826.16
2022-09-20T07:56:12.042Z,101783.38
2022-09-20T07:58:39.601Z,101812.75
2022-09-20T08:01:09.250Z,101815.00
2022-09-20T08:03:36.636Z,101796.69
2022-09-20T08:06:07.410Z,101820.19
2022-09-20T08:08:36.919Z,101804.09
2022-09-20T08:11:06.601Z,101814.84
2022-09-20T08:16:24.995Z,101816.25
2022-09-20T08:18:56.924Z,101783.44
2022-09-20T08:21:26.180Z,101809.03
2022-09-20T08:23:53.675Z,101786.78
2022-09-20T08:26:24.799Z,101840.59
2022-09-20T08:28:56.985Z,101842.06
2022-09-20T08:31:27.028Z,101798.72
2022-09-20T08:33:54.843Z,101782.13
2022-09-20T08:36:25.137Z,101775.56
2022-09-20T08:41:51.768Z,101857.06
2022-09-20T08:44:36.566Z,101853.91
2022-09-20T08:47:23.935Z,101855.38
2022-09-20T08:49:57.184Z,101818.50
2022-09-20T08:55:22.167Z,101847.00
2022-09-20T08:57:57.551Z,101790.69
2022-09-20T09:00:34.826Z,101815.41
2022-09-20T09:05:53.229Z,101851.97
2022-09-20T09:08:26.354Z,101851.38
2022-09-20T09:10:55.811Z,101851.22
2022-09-20T09:13:32.627Z,101844.13
2022-09-20T09:16:03.082Z,101858.78
2022-09-20T09:18:35.030Z,101839.81
2022-09-20T09:21:05.163Z,101798.34
2022-09-20T09:23:42.356Z,101849.84
2022-09-20T09:26:21.475Z,101808.16
2022-09-20T09:29:34.243Z,101823.97
2022-09-20T09:32:21.501Z,101809.91
2022-09-20T09:34:53.483Z,101815.75
2022-09-20T09:37:29.213Z,101828.09
2022-09-20T09:40:16.718Z,101830.94
2022-09-20T09:42:59.044Z,101854.72
2022-09-20T09:45:42.103Z,101831.41
2022-09-20T09:48:18.123Z,101856.72
2022-09-20T09:50:47.849Z,101832.44
2022-09-20T09:53:37.139Z,101813.63
2022-09-20T09:56:15.509Z,101844.56
2022-09-20T09:59:10.780Z,101843.22
2022-09-20T10:01:56.769Z,101818.91
2022-09-20T10:04:41.902Z,101847.41
2022-09-20T10:07:28.533Z,101826.91
2022-09-20T10:10:08.961Z,101840.34
2022-09-20T10:12:47.303Z,101789.19
2022-09-20T10:15:28.307Z,101849.50
2022-09-20T10:18:24.733Z,101848.47
2022-09-20T10:20:55.891Z,101847.91
2022-09-20T10:24:05.636Z,101807.09
2022-09-20T10:26:55.898Z,101820.75
2022-09-20T10:29:31.839Z,101852.34
2022-09-20T10:32:13.628Z,101851.63
2022-09-20T10:34:49.529Z,101817.97
2022-09-20T10:37:59.700Z,101843.00
2022-09-20T10:40:59.689Z,101836.91
2022-09-20T10:43:52.623Z,101839.72
2022-09-20T10:46:51.687Z,101795.13
2022-09-20T10:49:29.690Z,101814.97
2022-09-20T10:52:19.786Z,101819.66
2022-09-20T10:55:25.209Z,101840.75
2022-09-20T11:01:10.776Z,101785.44
2022-09-20T11:04:04.717Z,101782.47
2022-09-20T11:06:48.062Z,101831.16
2022-09-20T11:09:21.016Z,101838.06
2022-09-20T11:11:56.257Z,101844.47
2022-09-20T11:14:32.970Z,101831.81
2022-09-20T11:17:29.879Z,101837.59
2022-09-20T11:20:08.243Z,101823.06
2022-09-20T11:22:42.725Z,101834.81
2022-09-20T11:25:23.983Z,101832.22
2022-09-20T11:27:59.125Z,101833.63
2022-09-20T11:30:25.960Z,101801.06
2022-09-20T11:33:24.762Z,101832.41
2022-09-20T11:35:56.226Z,101831.81
2022-09-20T11:38:35.264Z,101811.22
2022-09-20T11:41:11.927Z,101813.69
2022-09-20T11:43:46.543Z,101809.78
2022-09-20T11:46:25.197Z,101828.41
2022-09-20T11:49:10.854Z,101762.41
2022-09-20T11:51:53.211Z,101796.53
2022-09-20T11:54:35.741Z,101818.28
2022-09-20T11:57:03.523Z,101791.13
2022-09-20T11:59:51.076Z,101776.88
2022-09-20T12:02:29.041Z,101784.38
2022-09-20T12:04:56.700Z,101816.16
2022-09-20T12:07:42.113Z,101793.28
2022-09-20T12:10:23.958Z,101802.94
2022-09-20T12:13:00.348Z,101769.72
2022-09-20T12:15:31.379Z,101799.63
2022-09-20T12:17:58.046Z,101795.34
2022-09-20T12:20:38.962Z,101802.63
2022-09-20T12:23:43.170Z,101795.88
2022-09-20T12:26:15.734Z,101800.47
2022-09-20T12:29:23.927Z,101797.53
2022-09-20T12:31:53.455Z,101768.56
2022-09-20T12:34:20.229Z,101768.69
2022-09-20T12:36:56.019Z,101792.88
2022-09-20T12:39:30.098Z,101774.47
2022-09-20T12:41:56.903Z,101800.56
2022-09-20T12:44:43.950Z,101764.41
2022-09-20T12:47:10.541Z,101793.53
2022-09-20T12:50:00.335Z,101797.94
2022-09-20T12:52:54.093Z,101789.00
2022-09-20T12:55:30.343Z,101759.88
2022-09-20T12:58:02.090Z,101789.94
2022-09-20T13:00:39.064Z,101749.22
2022-09-20T13:03:32.028Z,101781.31
2022-09-20T13:06:05.808Z,101783.09
2022-09-20T13:08:43.000Z,101751.88
2022-09-20T13:11:18.793Z,101768.91
2022-09-20T13:14:07.225Z,101785.75
2022-09-20T13:16:39.872Z,101745.06
2022-09-20T13:19:06.920Z,101744.78
2022-09-20T13:21:40.699Z,101782.53
2022-09-20T13:24:11.130Z,101771.66
2022-09-20T13:26:44.438Z,101772.56
2022-09-20T13:29:25.586Z,101761.09
2022-09-20T13:31:52.285Z,101766.00
2022-09-20T13:34:25.897Z,101735.94
2022-09-20T13:37:00.996Z,101773.16
2022-09-20T13:39:34.556Z,101763.34
2022-09-20T13:44:58.872Z,101761.00
2022-09-20T13:47:28.660Z,101761.66
2022-09-20T13:50:10.405Z,101713.16
2022-09-20T13:52:46.838Z,101715.53
2022-09-20T13:55:44.215Z,101750.28
2022-09-20T13:58:34.757Z,101766.59
2022-09-20T14:01:05.452Z,101771.44
2022-09-20T14:03:34.715Z,101738.59
2022-09-20T14:06:05.740Z,101747.22
2022-09-20T14:08:38.695Z,101720.72
2022-09-20T14:11:07.484Z,101735.16
2022-09-20T14:13:41.665Z,101693.66
2022-09-20T14:16:09.812Z,101683.69
2022-09-20T14:18:39.720Z,101721.13
2022-09-20T14:21:09.595Z,101740.75
2022-09-20T14:24:02.251Z,101766.09
2022-09-20T14:26:39.359Z,101764.78
2022-09-20T14:29:27.923Z,101760.03
2022-09-20T14:31:55.898Z,101722.56
2022-09-20T14:34:23.602Z,101751.13
2022-09-20T14:36:51.220Z,101745.06
2022-09-20T14:39:20.106Z,101748.28
2022-09-20T14:41:48.677Z,101702.25
2022-09-20T14:44:37.188Z,101749.09
2022-09-20T14:47:17.890Z,101714.34
2022-09-20T14:52:31.450Z,101751.59
2022-09-20T14:55:02.772Z,101749.56
2022-09-20T14:57:30.143Z,101699.75
2022-09-20T14:59:59.740Z,101664.25
2022-09-20T15:02:27.615Z,101677.59
2022-09-20T15:05:01.030Z,101718.84
2022-09-20T15:07:28.321Z,101692.25
2022-09-20T15:09:55.017Z,101692.66
2022-09-20T15:12:21.913Z,101728.53
2022-09-20T15:14:49.086Z,101719.81
2022-09-20T15:17:23.252Z,101696.25
2022-09-20T15:19:50.953Z,101669.47
2022-09-20T15:22:18.292Z,101684.91
2022-09-20T15:24:45.935Z,101711.81
2022-09-20T15:27:13.573Z,101683.53
2022-09-20T15:29:42.111Z,101603.59
2022-09-20T15:32:11.474Z,101617.84
2022-09-20T15:37:20.801Z,101651.31
2022-09-20T15:39:49.926Z,101637.09
2022-09-20T15:42:17.813Z,101641.84
2022-09-20T15:47:29.731Z,101645.03
2022-09-20T15:49:57.755Z,101680.59
2022-09-20T15:55:09.606Z,101678.94
2022-09-20T15:57:38.027Z,101593.97
2022-09-20T16:05:30.515Z,101664.63
2022-09-20T16:07:58.542Z,101634.75
2022-09-20T16:10:25.266Z,101701.25
2022-09-20T16:12:51.973Z,101646.22
2022-09-20T16:15:18.962Z,101676.31
2022-09-20T16:18:05.916Z,101664.72
2022-09-20T16:20:32.698Z,101667.09
2022-09-20T16:22:59.452Z,101672.09
2022-09-20T16:25:26.294Z,101661.84
2022-09-20T16:27:53.022Z,101656.41
2022-09-20T16:30:19.834Z,101670.16
2022-09-20T16:32:46.714Z,101660.41
2022-09-20T16:35:14.013Z,101632.69
2022-09-20T16:37:40.712Z,101660.59
2022-09-20T16:40:10.849Z,101659.81
2022-09-20T16:42:38.220Z,101668.91
2022-09-20T16:45:05.279Z,101687.78
2022-09-20T16:47:32.041Z,101716.38
2022-09-20T16:49:58.808Z,101677.28
2022-09-20T16:52:26.662Z,101698.59
2022-09-20T16:54:53.471Z,101696.13
2022-09-20T16:57:20.209Z,101682.94
2022-09-20T16:59:48.045Z,101653.19
2022-09-20T17:02:14.781Z,101687.50
2022-09-20T17:04:43.916Z,101677.13
2022-09-20T17:07:10.663Z,101678.16
2022-09-20T17:09:37.375Z,101690.19
2022-09-20T17:12:09.484Z,101697.41
2022-09-20T17:14:37.195Z,101695.78
2022-09-20T17:17:04.217Z,101672.66
2022-09-20T17:19:30.928Z,101659.84
2022-09-20T17:21:57.651Z,101686.69
2022-09-20T17:24:25.351Z,101674.72
2022-09-20T17:26:52.425Z,101735.75
2022-09-20T17:29:20.622Z,101699.03
2022-09-20T17:31:55.107Z,101731.13
2022-09-20T17:34:24.786Z,101682.44
2022-09-20T17:36:51.651Z,101669.41
2022-09-20T17:39:18.914Z,101673.13
2022-09-20T17:41:47.658Z,101728.91
2022-09-20T17:44:15.607Z,101685.09
2022-09-20T17:46:48.159Z,101731.22
2022-09-20T17:49:18.104Z,101717.50
2022-09-20T17:52:02.948Z,101742.50
2022-09-20T17:54:29.770Z,101655.31
2022-09-20T17:56:58.733Z,101688.63
2022-09-20T17:59:25.561Z,101698.75
2022-09-20T18:01:55.586Z,101696.59
2022-09-20T18:04:24.652Z,101713.31
2022-09-20T18:12:18.939Z,101670.44
2022-09-20T18:22:55.330Z,101615.59
2022-09-20T18:25:24.416Z,101671.63
2022-09-20T18:27:51.609Z,101659.16
2022-09-20T18:33:00.349Z,101762.31
2022-09-20T18:38:11.894Z,101699.06
2022-09-20T18:40:41.355Z,101614.56
2022-09-20T18:43:12.462Z,101622.50
2022-09-20T18:45:39.284Z,101759.56
2022-09-20T18:48:07.645Z,101727.53
2022-09-20T18:50:34.934Z,101642.34
2022-09-20T18:53:01.799Z,101702.31
2022-09-20T18:55:29.091Z,101708.88
2022-09-20T18:58:00.676Z,101687.31
2022-09-20T19:00:28.534Z,101677.88
2022-09-20T19:03:31.432Z,101757.38
2022-09-20T19:06:07.663Z,101726.31
2022-09-20T19:08:43.259Z,101738.47
2022-09-20T19:11:46.912Z,101765.88
2022-09-20T19:14:43.935Z,101698.63
2022-09-20T19:17:11.787Z,101762.34
2022-09-20T19:19:56.034Z,101725.13
2022-09-20T19:22:44.861Z,101753.75
2022-09-20T19:25:39.727Z,101762.34
2022-09-20T19:28:10.330Z,101759.59
2022-09-20T19:30:40.659Z,101751.72
2022-09-20T19:33:16.421Z,101754.00
2022-09-20T19:35:49.577Z,101749.25
2022-09-20T19:38:47.499Z,101763.53
2022-09-20T19:41:27.723Z,101747.84
2022-09-20T19:44:04.397Z,101765.34
2022-09-20T19:46:50.372Z,101768.94
2022-09-20T19:49:28.774Z,101763.88
2022-09-20T19:51:57.158Z,101758.59
2022-09-20T19:54:24.727Z,101753.00
2022-09-20T19:56:57.368Z,101755.78
2022-09-20T19:59:26.163Z,101754.31
2022-09-20T20:01:54.164Z,101759.59
2022-09-20T20:04:21.459Z,101722.47
2022-09-20T20:06:51.254Z,101759.59
2022-09-20T20:09:29.923Z,101759.34
2022-09-20T20:12:16.064Z,101764.09
2022-09-20T20:15:00.943Z,101763.19
2022-09-20T20:17:46.483Z,101754.53
2022-09-20T20:20:32.285Z,101728.19
2022-09-20T20:23:13.606Z,101762.34
2022-09-20T20:26:00.267Z,101693.25
2022-09-20T20:28:27.570Z,101739.81
2022-09-20T20:30:59.147Z,101746.34
2022-09-20T20:33:26.976Z,101710.34
2022-09-20T20:35:58.533Z,101772.31
2022-09-20T20:38:26.723Z,101769.31
2022-09-20T20:41:10.149Z,101719.56
2022-09-20T20:43:39.239Z,101773.72
2022-09-20T20:46:08.013Z,101767.16
2022-09-20T20:48:35.079Z,101740.22
2022-09-20T20:51:10.486Z,101765.03
2022-09-20T20:53:40.877Z,101767.06
2022-09-20T20:56:17.743Z,101741.28
2022-09-20T20:58:46.188Z,101767.78
2022-09-20T21:01:21.723Z,101716.84
2022-09-20T21:03:53.225Z,101761.84
2022-09-20T21:06:21.732Z,101740.66
2022-09-20T21:08:49.745Z,101763.81
2022-09-20T21:11:23.588Z,101739.66
2022-09-20T21:13:51.533Z,101717.09
2022-09-20T21:16:20.889Z,101757.81
2022-09-20T21:18:49.029Z,101752.97
2022-09-20T21:21:26.120Z,101763.09
2022-09-20T21:23:55.708Z,101768.09
2022-09-20T21:26:24.342Z,101763.09
2022-09-20T21:28:54.062Z,101761.47
2022-09-20T21:31:24.029Z,101767.47
2022-09-20T21:33:50.811Z,101705.00
2022-09-20T21:36:21.849Z,101761.78
2022-09-20T21:38:48.792Z,101730.06
2022-09-20T21:41:22.538Z,101729.19
2022-09-20T21:43:54.016Z,101718.06
2022-09-20T21:46:40.619Z,101720.94
2022-09-20T21:49:10.296Z,101753.69
2022-09-20T21:51:38.193Z,101703.78
2022-09-20T21:54:05.512Z,101739.94
2022-09-20T21:56:35.003Z,101717.00
2022-09-20T21:59:04.562Z,101747.69
2022-09-20T22:01:36.764Z,101764.59
2022-09-20T22:04:11.829Z,101767.38
2022-09-20T22:06:43.421Z,101747.34
2022-09-20T22:09:17.595Z,101767.59
2022-09-20T22:11:46.492Z,101764.25
2022-09-20T22:14:15.161Z,101769.53
2022-09-20T22:16:44.246Z,101754.66
2022-09-20T22:19:13.635Z,101759.53
2022-09-20T22:21:43.315Z,101770.16
2022-09-20T22:24:12.030Z,101765.66
2022-09-20T22:26:41.095Z,101770.88
2022-09-20T22:29:07.869Z,101750.44
2022-09-20T22:31:38.022Z,101770.03
2022-09-20T22:34:07.427Z,101761.81
2022-09-20T22:36:36.808Z,101755.88
2022-09-20T22:39:06.271Z,101737.28
2022-09-20T22:41:33.924Z,101765.31
2022-09-20T22:44:00.682Z,101744.72
2022-09-20T22:46:29.773Z,101763.88
2022-09-20T22:48:56.730Z,101740.19
2022-09-20T22:51:32.436Z,101761.44
2022-09-20T22:53:59.625Z,101741.88
2022-09-20T22:56:31.260Z,101756.84
2022-09-20T22:59:05.587Z,101763.09
2022-09-20T23:01:35.249Z,101704.88
2022-09-20T23:04:10.366Z,101754.19
2022-09-20T23:06:39.559Z,101731.28
2022-09-20T23:09:09.935Z,101753.06
2022-09-20T23:11:37.972Z,101732.41
2022-09-20T23:14:06.103Z,101746.22
2022-09-20T23:16:35.620Z,101695.88
2022-09-20T23:19:04.201Z,101741.91
2022-09-20T23:21:31.629Z,101748.47
2022-09-20T23:24:00.326Z,101727.81
2022-09-20T23:26:29.861Z,101731.84
2022-09-20T23:28:58.785Z,101722.16
2022-09-20T23:31:26.697Z,101719.84
2022-09-20T23:33:59.065Z,101734.97
2022-09-20T23:36:28.425Z,101700.34
2022-09-20T23:38:57.005Z,101729.38
2022-09-20T23:41:25.761Z,101734.88
2022-09-20T23:43:53.169Z,101726.25
2022-09-20T23:46:21.853Z,101740.38
2022-09-20T23:48:50.512Z,101710.63
2022-09-20T23:51:19.470Z,101703.16
2022-09-20T23:53:46.922Z,101714.13
2022-09-20T23:56:14.338Z,101734.66
2022-09-20T23:58:43.193Z,101719.09
